sensor_id;sensor_type;location;lat;lon;timestamp;temperature;humidity
38860;DHT22;24609;48.316;16.174;2023-04-24T00:00:35;11.70;99.90
38860;DHT22;24609;48.316;16.174;2023-04-24T00:03:01;11.70;99.90
38860;DHT22;24609;48.316;16.174;2023-04-24T00:05:28;11.60;99.90
38860;DHT22;24609;48.316;16.174;2023-04-24T00:07:54;11.50;99.90
38860;DHT22;24609;48.316;16.174;2023-04-24T00:10:20;11.50;99.90
38860;DHT22;24609;48.316;16.174;2023-04-24T00:12:46;11.40;99.90
38860;DHT22;24609;48.316;16.174;2023-04-24T00:15:12;11.30;99.90
38860;DHT22;24609;48.316;16.174;2023-04-24T00:17:38;11.20;99.90
38860;DHT22;24609;48.316;16.174;2023-04-24T00:20:05;11.00;99.90
38860;DHT22;24609;48.316;16.174;2023-04-24T00:22:32;10.70;99.90
38860;DHT22;24609;48.316;16.174;2023-04-24T00:24:58;10.50;99.90
38860;DHT22;24609;48.316;16.174;2023-04-24T00:27:24;10.40;99.90
38860;DHT22;24609;48.316;16.174;2023-04-24T00:29:50;10.30;99.90
38860;DHT22;24609;48.316;16.174;2023-04-24T00:32:16;10.30;99.90
38860;DHT22;24609;48.316;16.174;2023-04-24T00:34:43;10.30;99.90
38860;DHT22;24609;48.316;16.174;2023-04-24T00:37:08;10.20;99.90
38860;DHT22;24609;48.316;16.174;2023-04-24T00:39:34;10.20;99.90
38860;DHT22;24609;48.316;16.174;2023-04-24T00:42:00;10.20;99.90
38860;DHT22;24609;48.316;16.174;2023-04-24T00:44:27;10.10;99.90
38860;DHT22;24609;48.316;16.174;2023-04-24T00:46:54;10.00;99.90
38860;DHT22;24609;48.316;16.174;2023-04-24T00:49:21;9.90;99.90
38860;DHT22;24609;48.316;16.174;2023-04-24T00:51:47;9.70;99.90
38860;DHT22;24609;48.316;16.174;2023-04-24T00:54:15;9.70;99.90
38860;DHT22;24609;48.316;16.174;2023-04-24T00:56:42;9.60;99.90
38860;DHT22;24609;48.316;16.174;2023-04-24T00:59:08;9.60;99.90
38860;DHT22;24609;48.316;16.174;2023-04-24T01:01:34;9.60;99.90
38860;DHT22;24609;48.316;16.174;2023-04-24T01:04:00;9.50;99.90
38860;DHT22;24609;48.316;16.174;2023-04-24T01:06:28;9.40;99.90
38860;DHT22;24609;48.316;16.174;2023-04-24T01:08:58;9.40;99.90
38860;DHT22;24609;48.316;16.174;2023-04-24T01:11:25;9.40;99.90
38860;DHT22;24609;48.316;16.174;2023-04-24T01:13:51;9.50;99.90
38860;DHT22;24609;48.316;16.174;2023-04-24T01:16:17;9.40;99.90
38860;DHT22;24609;48.316;16.174;2023-04-24T01:18:46;9.30;99.90
38860;DHT22;24609;48.316;16.174;2023-04-24T01:21:13;9.30;99.90
38860;DHT22;24609;48.316;16.174;2023-04-24T01:23:40;9.30;99.90
38860;DHT22;24609;48.316;16.174;2023-04-24T01:26:06;9.40;99.90
38860;DHT22;24609;48.316;16.174;2023-04-24T01:28:32;9.40;99.90
38860;DHT22;24609;48.316;16.174;2023-04-24T01:30:58;9.40;99.90
38860;DHT22;24609;48.316;16.174;2023-04-24T01:33:24;9.30;99.90
38860;DHT22;24609;48.316;16.174;2023-04-24T01:35:51;9.30;99.90
38860;DHT22;24609;48.316;16.174;2023-04-24T01:38:17;9.40;99.90
38860;DHT22;24609;48.316;16.174;2023-04-24T01:40:43;9.40;99.90
38860;DHT22;24609;48.316;16.174;2023-04-24T01:43:08;9.40;99.90
38860;DHT22;24609;48.316;16.174;2023-04-24T01:45:34;9.40;99.90
38860;DHT22;24609;48.316;16.174;2023-04-24T01:48:00;9.50;99.90
38860;DHT22;24609;48.316;16.174;2023-04-24T01:50:26;9.60;99.90
38860;DHT22;24609;48.316;16.174;2023-04-24T01:52:52;9.70;99.90
38860;DHT22;24609;48.316;16.174;2023-04-24T01:55:18;9.80;99.90
38860;DHT22;24609;48.316;16.174;2023-04-24T01:57:43;9.80;99.90
38860;DHT22;24609;48.316;16.174;2023-04-24T02:00:09;9.90;99.90
38860;DHT22;24609;48.316;16.174;2023-04-24T02:02:38;9.90;99.90
38860;DHT22;24609;48.316;16.174;2023-04-24T02:05:06;9.90;99.90
38860;DHT22;24609;48.316;16.174;2023-04-24T02:07:33;9.90;99.90
38860;DHT22;24609;48.316;16.174;2023-04-24T02:09:59;9.80;99.90
38860;DHT22;24609;48.316;16.174;2023-04-24T02:12:24;9.80;99.90
38860;DHT22;24609;48.316;16.174;2023-04-24T02:14:50;9.80;99.90
38860;DHT22;24609;48.316;16.174;2023-04-24T02:17:16;9.90;99.90
38860;DHT22;24609;48.316;16.174;2023-04-24T02:19:42;10.10;99.90
38860;DHT22;24609;48.316;16.174;2023-04-24T02:22:07;10.20;99.90
38860;DHT22;24609;48.316;16.174;2023-04-24T02:24:33;10.30;99.90
38860;DHT22;24609;48.316;16.174;2023-04-24T02:26:59;10.40;99.90
38860;DHT22;24609;48.316;16.174;2023-04-24T02:29:25;10.50;99.90
38860;DHT22;24609;48.316;16.174;2023-04-24T02:31:51;10.60;99.90
38860;DHT22;24609;48.316;16.174;2023-04-24T02:34:16;10.50;99.90
38860;DHT22;24609;48.316;16.174;2023-04-24T02:36:42;10.40;99.90
38860;DHT22;24609;48.316;16.174;2023-04-24T02:39:08;10.30;99.90
38860;DHT22;24609;48.316;16.174;2023-04-24T02:41:33;10.30;99.90
38860;DHT22;24609;48.316;16.174;2023-04-24T02:43:59;10.30;99.90
38860;DHT22;24609;48.316;16.174;2023-04-24T02:46:25;10.20;99.90
38860;DHT22;24609;48.316;16.174;2023-04-24T02:48:51;10.30;99.90
38860;DHT22;24609;48.316;16.174;2023-04-24T02:51:17;10.30;99.90
38860;DHT22;24609;48.316;16.174;2023-04-24T02:53:43;10.30;99.90
38860;DHT22;24609;48.316;16.174;2023-04-24T02:56:09;10.30;99.90
38860;DHT22;24609;48.316;16.174;2023-04-24T02:58:37;10.10;99.90
38860;DHT22;24609;48.316;16.174;2023-04-24T03:01:03;10.00;99.90
38860;DHT22;24609;48.316;16.174;2023-04-24T03:03:29;10.00;99.90
38860;DHT22;24609;48.316;16.174;2023-04-24T03:05:54;10.00;99.90
38860;DHT22;24609;48.316;16.174;2023-04-24T03:08:21;9.90;99.90
38860;DHT22;24609;48.316;16.174;2023-04-24T03:10:46;9.90;99.90
38860;DHT22;24609;48.316;16.174;2023-04-24T03:13:12;9.80;99.90
38860;DHT22;24609;48.316;16.174;2023-04-24T03:15:37;9.80;99.90
38860;DHT22;24609;48.316;16.174;2023-04-24T03:18:03;9.70;99.90
38860;DHT22;24609;48.316;16.174;2023-04-24T03:20:29;9.60;99.90
38860;DHT22;24609;48.316;16.174;2023-04-24T03:22:55;9.50;99.90
38860;DHT22;24609;48.316;16.174;2023-04-24T03:25:21;9.50;99.90
38860;DHT22;24609;48.316;16.174;2023-04-24T03:27:47;9.50;99.90
38860;DHT22;24609;48.316;16.174;2023-04-24T03:30:13;9.40;99.90
38860;DHT22;24609;48.316;16.174;2023-04-24T03:32:38;9.40;99.90
38860;DHT22;24609;48.316;16.174;2023-04-24T03:35:08;9.40;99.90
38860;DHT22;24609;48.316;16.174;2023-04-24T03:37:34;9.40;99.90
38860;DHT22;24609;48.316;16.174;2023-04-24T03:40:00;9.40;99.90
38860;DHT22;24609;48.316;16.174;2023-04-24T03:42:26;9.30;99.90
38860;DHT22;24609;48.316;16.174;2023-04-24T03:44:51;9.30;99.90
38860;DHT22;24609;48.316;16.174;2023-04-24T03:47:17;9.40;99.90
38860;DHT22;24609;48.316;16.174;2023-04-24T03:49:43;9.50;99.90
38860;DHT22;24609;48.316;16.174;2023-04-24T03:52:08;9.60;99.90
38860;DHT22;24609;48.316;16.174;2023-04-24T03:54:34;9.70;99.90
38860;DHT22;24609;48.316;16.174;2023-04-24T03:57:00;9.90;99.90
38860;DHT22;24609;48.316;16.174;2023-04-24T03:59:26;10.00;99.90
38860;DHT22;24609;48.316;16.174;2023-04-24T04:01:52;10.20;99.90
38860;DHT22;24609;48.316;16.174;2023-04-24T04:04:18;10.20;99.90
38860;DHT22;24609;48.316;16.174;2023-04-24T04:06:43;10.30;99.90
38860;DHT22;24609;48.316;16.174;2023-04-24T04:09:10;10.40;99.90
38860;DHT22;24609;48.316;16.174;2023-04-24T04:11:36;10.40;99.90
38860;DHT22;24609;48.316;16.174;2023-04-24T04:14:02;10.50;99.90
38860;DHT22;24609;48.316;16.174;2023-04-24T04:16:27;10.70;99.90
38860;DHT22;24609;48.316;16.174;2023-04-24T04:18:53;10.70;99.90
38860;DHT22;24609;48.316;16.174;2023-04-24T04:21:19;10.90;99.90
38860;DHT22;24609;48.316;16.174;2023-04-24T04:23:45;11.10;99.90
38860;DHT22;24609;48.316;16.174;2023-04-24T04:26:11;11.20;99.90
38860;DHT22;24609;48.316;16.174;2023-04-24T04:28:38;11.40;99.90
38860;DHT22;24609;48.316;16.174;2023-04-24T04:31:04;11.60;99.90
38860;DHT22;24609;48.316;16.174;2023-04-24T04:33:30;11.70;99.90
38860;DHT22;24609;48.316;16.174;2023-04-24T04:35:56;11.90;99.90
38860;DHT22;24609;48.316;16.174;2023-04-24T04:38:22;12.00;99.90
38860;DHT22;24609;48.316;16.174;2023-04-24T04:40:48;12.10;99.90
38860;DHT22;24609;48.316;16.174;2023-04-24T04:43:14;12.10;99.90
38860;DHT22;24609;48.316;16.174;2023-04-24T04:45:43;12.00;99.90
38860;DHT22;24609;48.316;16.174;2023-04-24T04:48:10;12.00;99.90
38860;DHT22;24609;48.316;16.174;2023-04-24T04:50:38;12.10;99.90
38860;DHT22;24609;48.316;16.174;2023-04-24T04:53:04;12.10;99.90
38860;DHT22;24609;48.316;16.174;2023-04-24T04:55:31;12.10;99.90
38860;DHT22;24609;48.316;16.174;2023-04-24T04:57:56;12.10;99.90
38860;DHT22;24609;48.316;16.174;2023-04-24T05:00:22;12.20;99.90
38860;DHT22;24609;48.316;16.174;2023-04-24T05:02:50;12.30;99.90
38860;DHT22;24609;48.316;16.174;2023-04-24T05:05:16;12.40;99.90
38860;DHT22;24609;48.316;16.174;2023-04-24T05:07:43;12.60;99.90
38860;DHT22;24609;48.316;16.174;2023-04-24T05:10:09;12.90;99.90
38860;DHT22;24609;48.316;16.174;2023-04-24T05:12:35;13.00;99.90
38860;DHT22;24609;48.316;16.174;2023-04-24T05:15:00;13.10;99.90
38860;DHT22;24609;48.316;16.174;2023-04-24T05:17:26;13.20;99.90
38860;DHT22;24609;48.316;16.174;2023-04-24T05:19:52;13.20;99.90
38860;DHT22;24609;48.316;16.174;2023-04-24T05:22:18;13.20;99.90
38860;DHT22;24609;48.316;16.174;2023-04-24T05:24:46;13.20;99.90
38860;DHT22;24609;48.316;16.174;2023-04-24T05:27:12;13.30;99.90
38860;DHT22;24609;48.316;16.174;2023-04-24T05:29:38;13.20;99.90
38860;DHT22;24609;48.316;16.174;2023-04-24T05:32:04;13.20;99.90
38860;DHT22;24609;48.316;16.174;2023-04-24T05:34:29;13.10;99.90
38860;DHT22;24609;48.316;16.174;2023-04-24T05:36:55;13.20;99.90
38860;DHT22;24609;48.316;16.174;2023-04-24T05:39:21;13.30;99.90
38860;DHT22;24609;48.316;16.174;2023-04-24T05:41:47;13.50;99.90
38860;DHT22;24609;48.316;16.174;2023-04-24T05:44:12;13.60;99.90
38860;DHT22;24609;48.316;16.174;2023-04-24T05:46:38;13.80;99.90
38860;DHT22;24609;48.316;16.174;2023-04-24T05:49:04;14.00;99.90
38860;DHT22;24609;48.316;16.174;2023-04-24T05:51:29;14.00;99.90
38860;DHT22;24609;48.316;16.174;2023-04-24T05:53:57;14.00;99.90
38860;DHT22;24609;48.316;16.174;2023-04-24T05:56:23;13.90;99.90
38860;DHT22;24609;48.316;16.174;2023-04-24T05:58:48;13.90;99.90
38860;DHT22;24609;48.316;16.174;2023-04-24T06:01:14;13.90;99.90
38860;DHT22;24609;48.316;16.174;2023-04-24T06:03:41;13.90;99.90
38860;DHT22;24609;48.316;16.174;2023-04-24T06:06:07;14.10;99.90
38860;DHT22;24609;48.316;16.174;2023-04-24T06:08:34;14.40;99.90
38860;DHT22;24609;48.316;16.174;2023-04-24T06:11:00;14.50;99.90
38860;DHT22;24609;48.316;16.174;2023-04-24T06:13:26;14.50;99.90
38860;DHT22;24609;48.316;16.174;2023-04-24T06:15:52;14.60;99.90
38860;DHT22;24609;48.316;16.174;2023-04-24T06:18:18;14.70;99.90
38860;DHT22;24609;48.316;16.174;2023-04-24T06:20:45;14.80;99.90
38860;DHT22;24609;48.316;16.174;2023-04-24T06:23:11;15.00;99.90
38860;DHT22;24609;48.316;16.174;2023-04-24T06:25:37;15.00;99.90
38860;DHT22;24609;48.316;16.174;2023-04-24T06:28:03;14.80;99.90
38860;DHT22;24609;48.316;16.174;2023-04-24T06:30:29;14.80;99.90
38860;DHT22;24609;48.316;16.174;2023-04-24T06:32:55;15.30;99.90
38860;DHT22;24609;48.316;16.174;2023-04-24T06:35:20;15.50;99.90
38860;DHT22;24609;48.316;16.174;2023-04-24T06:37:46;15.90;99.90
38860;DHT22;24609;48.316;16.174;2023-04-24T06:40:12;15.90;99.90
38860;DHT22;24609;48.316;16.174;2023-04-24T06:42:38;15.50;99.90
38860;DHT22;24609;48.316;16.174;2023-04-24T06:45:04;15.50;99.90
38860;DHT22;24609;48.316;16.174;2023-04-24T06:47:30;15.60;99.90
38860;DHT22;24609;48.316;16.174;2023-04-24T06:49:56;15.40;99.90
38860;DHT22;24609;48.316;16.174;2023-04-24T06:52:21;15.50;99.90
38860;DHT22;24609;48.316;16.174;2023-04-24T06:54:47;15.50;99.90
38860;DHT22;24609;48.316;16.174;2023-04-24T06:57:13;15.40;99.90
38860;DHT22;24609;48.316;16.174;2023-04-24T06:59:38;15.60;99.90
38860;DHT22;24609;48.316;16.174;2023-04-24T07:02:04;15.70;99.90
38860;DHT22;24609;48.316;16.174;2023-04-24T07:04:30;15.80;99.90
38860;DHT22;24609;48.316;16.174;2023-04-24T07:06:56;15.50;99.90
38860;DHT22;24609;48.316;16.174;2023-04-24T07:09:24;15.30;99.90
38860;DHT22;24609;48.316;16.174;2023-04-24T07:11:51;15.20;99.90
38860;DHT22;24609;48.316;16.174;2023-04-24T07:14:17;15.30;99.90
38860;DHT22;24609;48.316;16.174;2023-04-24T07:16:43;15.40;99.90
38860;DHT22;24609;48.316;16.174;2023-04-24T07:19:09;15.10;99.90
38860;DHT22;24609;48.316;16.174;2023-04-24T07:21:35;15.30;99.90
38860;DHT22;24609;48.316;16.174;2023-04-24T07:24:00;15.30;99.90
38860;DHT22;24609;48.316;16.174;2023-04-24T07:26:27;15.50;99.90
38860;DHT22;24609;48.316;16.174;2023-04-24T07:28:53;15.40;99.90
38860;DHT22;24609;48.316;16.174;2023-04-24T07:31:19;15.30;99.90
38860;DHT22;24609;48.316;16.174;2023-04-24T07:33:45;15.30;99.90
38860;DHT22;24609;48.316;16.174;2023-04-24T07:36:11;15.40;99.90
38860;DHT22;24609;48.316;16.174;2023-04-24T07:38:41;15.30;99.90
38860;DHT22;24609;48.316;16.174;2023-04-24T07:41:07;15.40;99.90
38860;DHT22;24609;48.316;16.174;2023-04-24T07:43:33;15.60;99.90
38860;DHT22;24609;48.316;16.174;2023-04-24T07:45:59;15.90;99.90
38860;DHT22;24609;48.316;16.174;2023-04-24T07:48:25;15.40;99.90
38860;DHT22;24609;48.316;16.174;2023-04-24T07:50:52;15.50;99.90
38860;DHT22;24609;48.316;16.174;2023-04-24T07:53:17;15.40;99.90
38860;DHT22;24609;48.316;16.174;2023-04-24T07:55:43;15.20;99.90
38860;DHT22;24609;48.316;16.174;2023-04-24T07:58:09;15.10;99.90
38860;DHT22;24609;48.316;16.174;2023-04-24T08:00:35;15.10;99.90
38860;DHT22;24609;48.316;16.174;2023-04-24T08:03:01;14.80;99.90
38860;DHT22;24609;48.316;16.174;2023-04-24T08:05:26;14.80;99.90
38860;DHT22;24609;48.316;16.174;2023-04-24T08:07:54;14.60;99.90
38860;DHT22;24609;48.316;16.174;2023-04-24T08:10:21;14.40;99.90
38860;DHT22;24609;48.316;16.174;2023-04-24T08:12:47;14.30;99.90
38860;DHT22;24609;48.316;16.174;2023-04-24T08:15:13;14.10;99.90
38860;DHT22;24609;48.316;16.174;2023-04-24T08:17:38;14.20;99.90
38860;DHT22;24609;48.316;16.174;2023-04-24T08:20:05;14.10;99.90
38860;DHT22;24609;48.316;16.174;2023-04-24T08:22:35;14.30;99.90
38860;DHT22;24609;48.316;16.174;2023-04-24T08:25:01;14.20;99.90
38860;DHT22;24609;48.316;16.174;2023-04-24T08:27:27;14.40;99.90
38860;DHT22;24609;48.316;16.174;2023-04-24T08:29:53;14.60;99.90
38860;DHT22;24609;48.316;16.174;2023-04-24T08:32:19;14.60;99.90
38860;DHT22;24609;48.316;16.174;2023-04-24T08:34:45;14.60;99.90
38860;DHT22;24609;48.316;16.174;2023-04-24T08:37:11;14.40;99.90
38860;DHT22;24609;48.316;16.174;2023-04-24T08:39:37;14.10;99.90
38860;DHT22;24609;48.316;16.174;2023-04-24T08:42:04;14.40;99.90
38860;DHT22;24609;48.316;16.174;2023-04-24T08:44:34;14.40;99.90
38860;DHT22;24609;48.316;16.174;2023-04-24T08:47:02;14.40;99.90
38860;DHT22;24609;48.316;16.174;2023-04-24T08:49:28;14.40;99.90
38860;DHT22;24609;48.316;16.174;2023-04-24T08:51:55;14.10;99.90
38860;DHT22;24609;48.316;16.174;2023-04-24T08:54:21;14.10;99.90
38860;DHT22;24609;48.316;16.174;2023-04-24T08:56:48;13.80;99.90
38860;DHT22;24609;48.316;16.174;2023-04-24T08:59:15;13.80;99.90
38860;DHT22;24609;48.316;16.174;2023-04-24T09:01:41;13.60;99.90
38860;DHT22;24609;48.316;16.174;2023-04-24T09:04:09;13.60;99.90
38860;DHT22;24609;48.316;16.174;2023-04-24T09:06:40;13.60;99.90
38860;DHT22;24609;48.316;16.174;2023-04-24T09:09:06;13.50;99.90
38860;DHT22;24609;48.316;16.174;2023-04-24T09:11:32;13.50;99.90
38860;DHT22;24609;48.316;16.174;2023-04-24T09:13:58;13.50;99.90
38860;DHT22;24609;48.316;16.174;2023-04-24T09:16:25;13.50;99.90
38860;DHT22;24609;48.316;16.174;2023-04-24T09:18:51;13.40;99.90
38860;DHT22;24609;48.316;16.174;2023-04-24T09:21:19;13.40;99.90
38860;DHT22;24609;48.316;16.174;2023-04-24T09:23:45;13.20;99.90
38860;DHT22;24609;48.316;16.174;2023-04-24T09:26:11;13.20;99.90
38860;DHT22;24609;48.316;16.174;2023-04-24T09:28:39;13.30;99.90
38860;DHT22;24609;48.316;16.174;2023-04-24T09:31:18;13.50;99.90
38860;DHT22;24609;48.316;16.174;2023-04-24T09:34:03;13.40;99.90
38860;DHT22;24609;48.316;16.174;2023-04-24T09:36:35;13.20;99.90
38860;DHT22;24609;48.316;16.174;2023-04-24T09:39:05;13.20;99.90
38860;DHT22;24609;48.316;16.174;2023-04-24T09:41:33;13.20;99.90
38860;DHT22;24609;48.316;16.174;2023-04-24T09:44:20;13.30;99.90
38860;DHT22;24609;48.316;16.174;2023-04-24T09:46:53;13.10;99.90
38860;DHT22;24609;48.316;16.174;2023-04-24T09:49:28;13.00;99.90
38860;DHT22;24609;48.316;16.174;2023-04-24T09:52:10;13.00;99.90
38860;DHT22;24609;48.316;16.174;2023-04-24T09:54:36;13.20;99.90
38860;DHT22;24609;48.316;16.174;2023-04-24T09:57:02;13.10;99.90
38860;DHT22;24609;48.316;16.174;2023-04-24T09:59:29;13.10;99.90
38860;DHT22;24609;48.316;16.174;2023-04-24T10:01:55;13.10;99.90
38860;DHT22;24609;48.316;16.174;2023-04-24T10:04:25;13.20;99.90
38860;DHT22;24609;48.316;16.174;2023-04-24T10:06:53;13.20;99.90
38860;DHT22;24609;48.316;16.174;2023-04-24T10:09:21;13.30;99.90
38860;DHT22;24609;48.316;16.174;2023-04-24T10:11:49;13.30;99.90
38860;DHT22;24609;48.316;16.174;2023-04-24T10:14:20;13.20;99.90
38860;DHT22;24609;48.316;16.174;2023-04-24T10:16:47;13.30;99.90
38860;DHT22;24609;48.316;16.174;2023-04-24T10:19:16;13.20;99.90
38860;DHT22;24609;48.316;16.174;2023-04-24T10:21:45;13.20;99.90
38860;DHT22;24609;48.316;16.174;2023-04-24T10:24:18;13.10;99.90
38860;DHT22;24609;48.316;16.174;2023-04-24T10:26:46;13.20;99.90
38860;DHT22;24609;48.316;16.174;2023-04-24T10:29:15;13.30;99.90
38860;DHT22;24609;48.316;16.174;2023-04-24T10:31:41;13.50;99.90
38860;DHT22;24609;48.316;16.174;2023-04-24T10:34:09;13.40;99.90
38860;DHT22;24609;48.316;16.174;2023-04-24T10:36:38;13.30;99.90
38860;DHT22;24609;48.316;16.174;2023-04-24T10:39:08;13.50;99.90
38860;DHT22;24609;48.316;16.174;2023-04-24T10:41:37;13.70;99.90
38860;DHT22;24609;48.316;16.174;2023-04-24T10:44:14;13.70;99.90
38860;DHT22;24609;48.316;16.174;2023-04-24T10:46:44;13.60;99.90
38860;DHT22;24609;48.316;16.174;2023-04-24T10:49:10;13.40;99.90
38860;DHT22;24609;48.316;16.174;2023-04-24T10:54:35;13.20;99.90
38860;DHT22;24609;48.316;16.174;2023-04-24T10:59:46;13.00;99.90
38860;DHT22;24609;48.316;16.174;2023-04-24T11:02:14;12.80;99.90
38860;DHT22;24609;48.316;16.174;2023-04-24T11:04:44;12.90;99.90
38860;DHT22;24609;48.316;16.174;2023-04-24T11:07:10;13.20;99.90
38860;DHT22;24609;48.316;16.174;2023-04-24T11:09:37;13.40;99.90
38860;DHT22;24609;48.316;16.174;2023-04-24T11:12:06;13.60;99.90
38860;DHT22;24609;48.316;16.174;2023-04-24T11:17:37;13.50;99.90
38860;DHT22;24609;48.316;16.174;2023-04-24T11:20:10;13.50;99.90
38860;DHT22;24609;48.316;16.174;2023-04-24T11:22:38;13.60;99.90
38860;DHT22;24609;48.316;16.174;2023-04-24T11:25:08;13.90;99.90
38860;DHT22;24609;48.316;16.174;2023-04-24T11:27:42;14.20;99.90
38860;DHT22;24609;48.316;16.174;2023-04-24T11:30:09;13.90;99.90
38860;DHT22;24609;48.316;16.174;2023-04-24T11:32:36;14.30;99.90
38860;DHT22;24609;48.316;16.174;2023-04-24T11:35:17;14.60;99.90
38860;DHT22;24609;48.316;16.174;2023-04-24T11:37:48;14.50;99.90
38860;DHT22;24609;48.316;16.174;2023-04-24T11:40:16;14.50;99.90
38860;DHT22;24609;48.316;16.174;2023-04-24T11:42:46;14.80;99.90
38860;DHT22;24609;48.316;16.174;2023-04-24T11:45:23;14.80;99.90
38860;DHT22;24609;48.316;16.174;2023-04-24T11:47:50;14.80;99.90
38860;DHT22;24609;48.316;16.174;2023-04-24T11:50:18;14.90;99.90
38860;DHT22;24609;48.316;16.174;2023-04-24T11:52:45;14.90;99.90
38860;DHT22;24609;48.316;16.174;2023-04-24T11:57:43;15.10;99.90
38860;DHT22;24609;48.316;16.174;2023-04-24T12:00:16;15.00;99.90
38860;DHT22;24609;48.316;16.174;2023-04-24T12:02:42;14.90;99.90
38860;DHT22;24609;48.316;16.174;2023-04-24T12:05:08;15.10;99.90
38860;DHT22;24609;48.316;16.174;2023-04-24T12:07:41;15.80;99.90
38860;DHT22;24609;48.316;16.174;2023-04-24T12:10:09;16.60;99.90
38860;DHT22;24609;48.316;16.174;2023-04-24T12:12:35;16.50;99.90
38860;DHT22;24609;48.316;16.174;2023-04-24T12:15:06;16.80;99.90
38860;DHT22;24609;48.316;16.174;2023-04-24T12:17:33;17.60;99.90
38860;DHT22;24609;48.316;16.174;2023-04-24T12:20:03;17.40;99.90
38860;DHT22;24609;48.316;16.174;2023-04-24T12:22:51;17.30;99.90
38860;DHT22;24609;48.316;16.174;2023-04-24T12:25:26;17.70;99.90
38860;DHT22;24609;48.316;16.174;2023-04-24T12:27:54;20.40;99.90
38860;DHT22;24609;48.316;16.174;2023-04-24T12:30:21;19.00;99.90
38860;DHT22;24609;48.316;16.174;2023-04-24T12:32:48;18.00;99.90
38860;DHT22;24609;48.316;16.174;2023-04-24T12:35:20;17.60;99.90
38860;DHT22;24609;48.316;16.174;2023-04-24T12:37:48;17.90;99.90
38860;DHT22;24609;48.316;16.174;2023-04-24T12:40:15;19.00;99.90
38860;DHT22;24609;48.316;16.174;2023-04-24T12:42:49;21.10;99.90
38860;DHT22;24609;48.316;16.174;2023-04-24T12:45:16;23.50;99.90
38860;DHT22;24609;48.316;16.174;2023-04-24T12:47:43;24.50;99.90
38860;DHT22;24609;48.316;16.174;2023-04-24T12:50:14;22.90;99.90
38860;DHT22;24609;48.316;16.174;2023-04-24T12:52:41;20.70;99.90
38860;DHT22;24609;48.316;16.174;2023-04-24T12:55:07;19.30;99.90
38860;DHT22;24609;48.316;16.174;2023-04-24T12:57:33;18.90;99.90
38860;DHT22;24609;48.316;16.174;2023-04-24T13:00:00;17.20;99.90
38860;DHT22;24609;48.316;16.174;2023-04-24T13:02:28;16.20;99.90
38860;DHT22;24609;48.316;16.174;2023-04-24T13:04:54;15.70;99.90
38860;DHT22;24609;48.316;16.174;2023-04-24T13:07:20;16.10;99.90
38860;DHT22;24609;48.316;16.174;2023-04-24T13:09:48;17.10;99.90
38860;DHT22;24609;48.316;16.174;2023-04-24T13:12:14;18.90;99.90
38860;DHT22;24609;48.316;16.174;2023-04-24T13:14:40;19.20;99.90
38860;DHT22;24609;48.316;16.174;2023-04-24T13:17:06;18.70;99.90
38860;DHT22;24609;48.316;16.174;2023-04-24T13:19:37;17.90;99.90
38860;DHT22;24609;48.316;16.174;2023-04-24T13:22:03;17.30;99.90
38860;DHT22;24609;48.316;16.174;2023-04-24T13:24:29;16.50;99.90
38860;DHT22;24609;48.316;16.174;2023-04-24T13:26:57;15.80;99.90
38860;DHT22;24609;48.316;16.174;2023-04-24T13:29:23;15.20;99.90
38860;DHT22;24609;48.316;16.174;2023-04-24T13:31:50;14.80;99.90
38860;DHT22;24609;48.316;16.174;2023-04-24T13:34:17;14.60;99.90
38860;DHT22;24609;48.316;16.174;2023-04-24T13:36:43;14.40;99.90
38860;DHT22;24609;48.316;16.174;2023-04-24T13:39:10;14.30;99.90
38860;DHT22;24609;48.316;16.174;2023-04-24T13:41:36;14.20;99.90
38860;DHT22;24609;48.316;16.174;2023-04-24T13:44:03;14.20;99.90
38860;DHT22;24609;48.316;16.174;2023-04-24T13:46:29;14.30;99.90
38860;DHT22;24609;48.316;16.174;2023-04-24T13:48:56;14.50;99.90
38860;DHT22;24609;48.316;16.174;2023-04-24T13:51:23;15.10;99.90
38860;DHT22;24609;48.316;16.174;2023-04-24T13:53:48;15.90;99.90
38860;DHT22;24609;48.316;16.174;2023-04-24T13:56:14;16.50;99.90
38860;DHT22;24609;48.316;16.174;2023-04-24T13:58:40;16.50;99.90
38860;DHT22;24609;48.316;16.174;2023-04-24T14:01:06;17.10;99.90
38860;DHT22;24609;48.316;16.174;2023-04-24T14:03:33;17.50;99.90
38860;DHT22;24609;48.316;16.174;2023-04-24T14:05:59;17.90;99.90
38860;DHT22;24609;48.316;16.174;2023-04-24T14:08:25;17.90;99.90
38860;DHT22;24609;48.316;16.174;2023-04-24T14:10:51;17.80;99.90
38860;DHT22;24609;48.316;16.174;2023-04-24T14:13:17;17.40;99.90
38860;DHT22;24609;48.316;16.174;2023-04-24T14:15:43;17.00;99.90
38860;DHT22;24609;48.316;16.174;2023-04-24T14:18:09;16.90;99.90
38860;DHT22;24609;48.316;16.174;2023-04-24T14:20:35;16.50;99.90
38860;DHT22;24609;48.316;16.174;2023-04-24T14:23:00;15.70;99.90
38860;DHT22;24609;48.316;16.174;2023-04-24T14:25:26;15.10;99.90
38860;DHT22;24609;48.316;16.174;2023-04-24T14:27:52;14.90;99.90
38860;DHT22;24609;48.316;16.174;2023-04-24T14:30:18;14.90;99.90
38860;DHT22;24609;48.316;16.174;2023-04-24T14:32:44;14.90;99.90
38860;DHT22;24609;48.316;16.174;2023-04-24T14:35:10;14.80;99.90
38860;DHT22;24609;48.316;16.174;2023-04-24T14:37:36;14.90;99.90
38860;DHT22;24609;48.316;16.174;2023-04-24T14:40:03;14.90;99.90
38860;DHT22;24609;48.316;16.174;2023-04-24T14:42:31;14.70;99.90
38860;DHT22;24609;48.316;16.174;2023-04-24T14:44:57;14.60;99.90
38860;DHT22;24609;48.316;16.174;2023-04-24T14:47:23;14.50;99.90
38860;DHT22;24609;48.316;16.174;2023-04-24T14:49:49;14.50;99.90
38860;DHT22;24609;48.316;16.174;2023-04-24T14:52:14;14.60;99.90
38860;DHT22;24609;48.316;16.174;2023-04-24T14:54:42;14.60;99.90
38860;DHT22;24609;48.316;16.174;2023-04-24T14:57:08;14.50;99.90
38860;DHT22;24609;48.316;16.174;2023-04-24T14:59:34;14.60;99.90
38860;DHT22;24609;48.316;16.174;2023-04-24T15:02:00;14.70;99.90
38860;DHT22;24609;48.316;16.174;2023-04-24T15:04:26;14.70;99.90
38860;DHT22;24609;48.316;16.174;2023-04-24T15:06:53;14.60;99.90
38860;DHT22;24609;48.316;16.174;2023-04-24T15:09:22;14.60;99.90
38860;DHT22;24609;48.316;16.174;2023-04-24T15:11:49;14.60;99.90
38860;DHT22;24609;48.316;16.174;2023-04-24T15:14:16;14.50;99.90
38860;DHT22;24609;48.316;16.174;2023-04-24T15:16:42;14.40;99.90
38860;DHT22;24609;48.316;16.174;2023-04-24T15:19:08;14.20;99.90
38860;DHT22;24609;48.316;16.174;2023-04-24T15:21:35;14.10;99.90
38860;DHT22;24609;48.316;16.174;2023-04-24T15:24:01;13.80;99.90
38860;DHT22;24609;48.316;16.174;2023-04-24T15:26:27;13.40;99.90